createdAt,value
2023-05-24T00:04:45.543Z,2.45
2023-05-24T00:09:47.114Z,2.40
2023-05-24T00:14:48.750Z,2.63
2023-05-24T00:19:50.704Z,1.80
2023-05-24T00:24:52.308Z,2.28
2023-05-24T00:29:53.857Z,1.60
2023-05-24T00:34:56.258Z,1.48
2023-05-24T00:39:57.842Z,1.85
2023-05-24T00:44:59.389Z,2.10
2023-05-24T00:50:01.047Z,2.40
2023-05-24T00:55:03.354Z,2.80
2023-05-24T01:00:05.971Z,2.95
2023-05-24T01:05:08.048Z,2.88
2023-05-24T01:10:34.851Z,2.78
2023-05-24T01:15:46.976Z,3.08
2023-05-24T01:20:55.309Z,2.80
2023-05-24T01:26:13.308Z,3.53
2023-05-24T01:31:17.240Z,2.97
2023-05-24T01:36:18.959Z,3.30
2023-05-24T01:41:39.257Z,3.50
2023-05-24T01:46:40.818Z,3.80
2023-05-24T01:52:03.675Z,3.40
2023-05-24T01:57:07.747Z,3.75
2023-05-24T02:02:11.542Z,3.47
2023-05-24T02:07:13.365Z,4.38
2023-05-24T02:12:14.971Z,3.50
2023-05-24T02:17:17.976Z,3.78
2023-05-24T02:22:22.276Z,3.88
2023-05-24T02:27:23.932Z,4.20
2023-05-24T02:32:25.508Z,3.80
2023-05-24T02:37:28.024Z,3.78
2023-05-24T02:42:29.572Z,4.18
2023-05-24T02:47:31.249Z,4.38
2023-05-24T02:52:33.088Z,3.50
2023-05-24T02:57:34.650Z,3.70
2023-05-24T03:02:38.516Z,3.78
2023-05-24T03:07:40.975Z,3.60
2023-05-24T03:12:42.579Z,4.07
2023-05-24T03:17:44.732Z,3.88
2023-05-24T03:22:46.507Z,3.50
2023-05-24T03:27:48.139Z,3.80
2023-05-24T03:32:50.199Z,3.70
2023-05-24T03:37:53.128Z,4.07
2023-05-24T03:42:55.444Z,3.58
2023-05-24T03:48:07.712Z,3.42
2023-05-24T03:53:09.282Z,3.97
2023-05-24T03:58:10.855Z,3.15
2023-05-24T04:03:12.778Z,3.90
2023-05-24T04:08:15.094Z,4.13
2023-05-24T04:13:16.682Z,3.75
2023-05-24T04:18:18.429Z,3.65
2023-05-24T04:23:20.025Z,3.88
2023-05-24T04:28:22.201Z,3.75
2023-05-24T04:33:23.816Z,3.72
2023-05-24T04:38:25.381Z,3.50
2023-05-24T04:43:27.280Z,3.60
2023-05-24T04:48:28.896Z,4.03
2023-05-24T04:53:30.508Z,3.60
2023-05-24T04:58:33.259Z,3.90
2023-05-24T05:03:35.058Z,3.72
2023-05-24T05:08:36.946Z,3.70
2023-05-24T05:13:38.498Z,3.28
2023-05-24T05:18:41.027Z,3.58
2023-05-24T05:23:42.656Z,3.28
2023-05-24T05:28:44.709Z,3.85
2023-05-24T05:33:46.296Z,4.03
2023-05-24T05:38:48.005Z,3.60
2023-05-24T05:43:50.064Z,4.07
2023-05-24T05:48:51.927Z,3.80
2023-05-24T05:53:53.459Z,4.20
2023-05-24T05:58:55.009Z,3.97
2023-05-24T06:03:56.636Z,4.07
2023-05-24T06:08:58.573Z,4.80
2023-05-24T06:14:01.377Z,4.70
2023-05-24T06:19:06.235Z,4.60
2023-05-24T06:24:09.774Z,3.92
2023-05-24T06:29:11.368Z,4.38
2023-05-24T06:34:13.726Z,4.20
2023-05-24T06:39:16.118Z,4.28
2023-05-24T06:44:18.159Z,4.50
2023-05-24T06:49:19.867Z,3.53
2023-05-24T06:54:21.820Z,4.07
2023-05-24T06:59:23.469Z,3.78
2023-05-24T07:04:28.885Z,4.10
2023-05-24T07:09:30.476Z,4.50
2023-05-24T07:14:32.146Z,4.40
2023-05-24T07:19:35.850Z,4.40
2023-05-24T07:24:37.402Z,5.25
2023-05-24T07:29:38.953Z,5.45
2023-05-24T07:34:41.448Z,5.28
2023-05-24T07:39:43.558Z,5.43
2023-05-24T07:44:45.092Z,5.20
2023-05-24T07:49:46.752Z,5.65
2023-05-24T07:54:48.780Z,5.28
2023-05-24T07:59:50.507Z,5.25
2023-05-24T08:04:52.533Z,4.25
2023-05-24T08:09:54.312Z,4.15
2023-05-24T08:14:56.803Z,4.63
2023-05-24T08:19:58.506Z,5.30
2023-05-24T08:25:00.168Z,4.53
2023-05-24T08:30:02.015Z,4.45
2023-05-24T08:35:19.467Z,4.32
2023-05-24T08:40:25.784Z,4.75
2023-05-24T08:45:30.974Z,4.20
2023-05-24T08:50:33.544Z,4.15
2023-05-24T08:55:35.982Z,4.43
2023-05-24T09:00:37.536Z,4.43
2023-05-24T09:05:41.826Z,4.63
2023-05-24T09:10:54.124Z,4.95
2023-05-24T09:15:59.952Z,4.35
2023-05-24T09:21:01.575Z,4.28
2023-05-24T09:26:10.246Z,4.88
2023-05-24T09:31:12.936Z,4.65
2023-05-24T09:36:17.213Z,4.93
2023-05-24T09:41:20.511Z,5.50
2023-05-24T09:46:22.202Z,4.88
2023-05-24T09:51:24.589Z,4.10
2023-05-24T09:56:26.997Z,5.03
2023-05-24T10:01:28.678Z,4.18
2023-05-24T10:06:35.120Z,4.40
2023-05-24T10:11:37.446Z,3.75
2023-05-24T10:16:39.180Z,3.60
2023-05-24T10:21:42.311Z,4.15
2023-05-24T10:26:47.177Z,4.55
2023-05-24T10:31:49.635Z,3.97
2023-05-24T10:36:51.697Z,3.60
2023-05-24T10:41:56.740Z,3.72
2023-05-24T10:47:15.631Z,3.80
2023-05-24T10:52:17.309Z,3.10
2023-05-24T10:57:24.401Z,3.85
2023-05-24T11:02:28.357Z,3.25
2023-05-24T11:07:33.281Z,3.72
2023-05-24T11:12:38.819Z,3.15
2023-05-24T11:18:18.169Z,3.40
2023-05-24T11:23:20.362Z,3.58
2023-05-24T11:28:22.149Z,2.90
2023-05-24T11:33:24.354Z,3.13
2023-05-24T11:38:27.443Z,3.38
2023-05-24T11:43:30.240Z,3.08
2023-05-24T11:48:32.255Z,3.28
2023-05-24T11:53:34.018Z,2.97
2023-05-24T11:58:48.125Z,2.83
2023-05-24T12:03:51.497Z,3.00
2023-05-24T12:08:53.497Z,3.22
2023-05-24T12:13:55.179Z,2.90
2023-05-24T12:19:04.135Z,3.30
2023-05-24T12:24:14.451Z,2.58
2023-05-24T12:29:17.678Z,2.60
2023-05-24T12:34:20.181Z,2.63
2023-05-24T12:39:24.331Z,2.40
2023-05-24T12:44:31.627Z,3.00
2023-05-24T12:49:34.369Z,2.50
2023-05-24T12:54:36.199Z,3.20
2023-05-24T12:59:38.669Z,2.70
2023-05-24T13:04:40.805Z,2.83
2023-05-24T13:09:42.344Z,2.80
2023-05-24T13:14:44.589Z,2.60
2023-05-24T13:19:47.167Z,2.67
2023-05-24T13:24:48.743Z,3.13
2023-05-24T13:30:00.381Z,3.25
2023-05-24T13:35:04.695Z,3.45
2023-05-24T13:40:08.712Z,2.97
2023-05-24T13:45:11.586Z,3.47
2023-05-24T13:50:13.193Z,2.47
2023-05-24T13:55:14.914Z,2.42
2023-05-24T14:00:17.556Z,3.03
2023-05-24T14:05:27.267Z,3.53
2023-05-24T14:10:29.696Z,2.80
2023-05-24T14:15:31.800Z,2.53
2023-05-24T14:20:37.753Z,2.78
2023-05-24T14:25:41.352Z,2.83
2023-05-24T14:30:43.223Z,2.85
2023-05-24T14:35:44.983Z,2.80
2023-05-24T14:40:49.610Z,2.67
2023-05-24T14:45:51.376Z,2.65
2023-05-24T14:50:53.187Z,2.47
2023-05-24T14:55:54.869Z,2.35
2023-05-24T15:00:56.551Z,2.40
2023-05-24T15:05:58.957Z,2.35
2023-05-24T15:11:00.819Z,2.20
2023-05-24T15:16:02.726Z,2.90
2023-05-24T15:21:04.461Z,2.30
2023-05-24T15:26:06.477Z,2.80
2023-05-24T15:31:08.186Z,2.28
2023-05-24T15:36:14.125Z,1.98
2023-05-24T15:41:16.172Z,2.38
2023-05-24T15:46:20.581Z,2.30
2023-05-24T15:52:01.768Z,2.30
2023-05-24T15:56:43.630Z,2.78
2023-05-24T16:01:45.196Z,2.40
2023-05-24T16:06:47.130Z,2.65
2023-05-24T16:11:49.034Z,2.47
2023-05-24T16:16:50.610Z,2.80
2023-05-24T16:21:52.526Z,2.30
2023-05-24T16:26:54.378Z,2.60
2023-05-24T16:31:56.070Z,2.50
2023-05-24T16:36:57.729Z,2.40
2023-05-24T16:42:01.472Z,2.85
2023-05-24T16:47:03.349Z,3.08
2023-05-24T16:52:05.098Z,2.63
2023-05-24T16:57:06.707Z,3.00
2023-05-24T17:02:08.677Z,2.67
2023-05-24T17:07:10.342Z,2.90
2023-05-24T17:12:11.873Z,2.92
2023-05-24T17:17:13.432Z,2.45
2023-05-24T17:22:15.117Z,2.50
2023-05-24T17:27:19.921Z,2.70
2023-05-24T17:32:23.969Z,2.78
2023-05-24T17:37:25.568Z,2.67
2023-05-24T17:42:27.146Z,2.72
2023-05-24T17:47:28.761Z,2.63
2023-05-24T17:52:30.396Z,2.75
2023-05-24T17:57:31.973Z,2.53
2023-05-24T18:02:33.620Z,2.38
2023-05-24T18:07:36.310Z,2.85
2023-05-24T18:12:38.648Z,2.70
2023-05-24T18:17:40.695Z,2.95
2023-05-24T18:22:42.359Z,2.78
2023-05-24T18:27:44.008Z,2.45
2023-05-24T18:33:02.710Z,2.60
2023-05-24T18:38:05.450Z,2.85
2023-05-24T18:43:07.014Z,2.88
2023-05-24T18:48:08.759Z,2.88
2023-05-24T18:53:10.385Z,2.92
2023-05-24T18:58:11.927Z,2.80
2023-05-24T19:03:13.663Z,3.00
2023-05-24T19:08:15.437Z,2.88
2023-05-24T19:13:18.068Z,2.78
2023-05-24T19:18:19.848Z,2.78
2023-05-24T19:23:21.594Z,2.75
2023-05-24T19:28:24.142Z,2.90
2023-05-24T19:33:25.759Z,3.13
2023-05-24T19:38:27.287Z,2.42
2023-05-24T19:43:28.923Z,3.45
2023-05-24T19:48:30.664Z,2.47
2023-05-24T19:53:32.173Z,2.67
2023-05-24T19:58:33.743Z,2.58
2023-05-24T20:03:35.422Z,3.00
2023-05-24T20:08:37.070Z,2.90
2023-05-24T20:13:38.738Z,2.92
2023-05-24T20:18:40.442Z,2.67
2023-05-24T20:23:41.978Z,3.50
2023-05-24T20:28:43.573Z,2.65
2023-05-24T20:33:45.286Z,2.80
2023-05-24T20:38:47.637Z,2.60
2023-05-24T20:43:51.396Z,2.80
2023-05-24T20:48:53.807Z,2.92
2023-05-24T20:53:55.943Z,3.30
2023-05-24T20:58:59.891Z,3.42
2023-05-24T21:04:02.162Z,2.90
2023-05-24T21:09:04.002Z,2.67
2023-05-24T21:14:05.871Z,3.33
2023-05-24T21:19:07.932Z,3.33
2023-05-24T21:24:09.581Z,3.05
2023-05-24T21:29:13.175Z,2.80
2023-05-24T21:34:14.917Z,2.95
2023-05-24T21:39:16.486Z,2.90
2023-05-24T21:44:18.324Z,3.17
2023-05-24T21:49:21.596Z,2.95
2023-05-24T21:54:23.658Z,3.55
2023-05-24T21:59:25.487Z,3.28
2023-05-24T22:04:27.078Z,3.60
2023-05-24T22:09:28.706Z,3.47
2023-05-24T22:14:30.605Z,3.35
2023-05-24T22:24:40.824Z,3.42
2023-05-24T22:29:43.540Z,3.15
2023-05-24T22:34:45.899Z,3.75
2023-05-24T22:39:47.831Z,3.65
2023-05-24T22:44:49.918Z,3.22
2023-05-24T22:49:54.025Z,3.55
2023-05-24T22:54:56.182Z,3.20
2023-05-24T22:59:58.133Z,3.72
2023-05-24T23:05:00.371Z,3.88
2023-05-24T23:10:03.420Z,4.15
2023-05-24T23:15:07.472Z,3.15
2023-05-24T23:20:14.587Z,3.85
2023-05-24T23:25:17.180Z,3.47
2023-05-24T23:30:20.113Z,3.70
2023-05-24T23:35:22.302Z,3.25
2023-05-24T23:40:27.206Z,3.15
2023-05-24T23:45:29.246Z,2.90
2023-05-24T23:50:37.310Z,3.10
2023-05-24T23:55:44.857Z,3.65
